createdAt,value
2018-07-27T00:01:12.194Z,74.50
2018-07-27T00:06:08.474Z,75.90
2018-07-27T00:11:04.987Z,76.40
2018-07-27T00:13:33.245Z,78.10
2018-07-27T00:16:01.861Z,77.60
2018-07-27T00:18:30.995Z,77.80
2018-07-27T00:25:56.196Z,78.90
2018-07-27T00:28:31.051Z,79.20
2018-07-27T00:30:59.428Z,79.70
2018-07-27T00:33:27.728Z,80.40
2018-07-27T00:38:37.837Z,81.20
2018-07-27T00:41:06.125Z,81.70
2018-07-27T00:48:30.394Z,83.70
2018-07-27T00:53:27.116Z,83.60
2018-07-27T00:55:55.610Z,83.90
2018-07-27T00:58:23.991Z,84.10
2018-07-27T01:00:52.504Z,84.30
2018-07-27T01:03:20.886Z,84.70
2018-07-27T01:05:49.385Z,85.00
2018-07-27T01:08:18.154Z,85.20
2018-07-27T01:10:46.604Z,85.70
2018-07-27T01:13:15.095Z,86.00
2018-07-27T01:18:18.980Z,86.10
2018-07-27T01:20:47.358Z,86.30
2018-07-27T01:23:16.087Z,86.20
2018-07-27T01:25:44.684Z,85.70
2018-07-27T01:30:41.364Z,87.00
2018-07-27T01:33:09.664Z,87.90
2018-07-27T01:35:38.186Z,87.30
2018-07-27T01:38:06.421Z,87.30
2018-07-27T01:40:34.886Z,87.60
2018-07-27T01:43:03.159Z,88.10
2018-07-27T01:45:32.685Z,88.50
2018-07-27T01:48:01.004Z,89.00
2018-07-27T01:50:29.394Z,89.80
2018-07-27T01:52:57.711Z,89.60
2018-07-27T01:55:30.053Z,89.80
2018-07-27T01:57:58.692Z,90.00
2018-07-27T02:00:27.084Z,90.10
2018-07-27T02:05:24.489Z,90.40
2018-07-27T02:07:52.777Z,90.50
2018-07-27T02:10:21.191Z,90.60
2018-07-27T02:12:49.478Z,90.70
2018-07-27T02:15:17.883Z,90.80
2018-07-27T02:20:15.310Z,90.90
2018-07-27T02:22:43.700Z,91.10
2018-07-27T02:25:12.529Z,91.20
2018-07-27T02:27:40.898Z,91.30
2018-07-27T02:30:09.297Z,91.40
2018-07-27T02:32:38.028Z,91.50
2018-07-27T02:35:06.434Z,91.70
2018-07-27T02:37:36.154Z,91.70
2018-07-27T02:40:04.616Z,91.90
2018-07-27T02:42:32.838Z,92.00
2018-07-27T02:45:01.130Z,92.10
2018-07-27T02:50:08.384Z,92.30
2018-07-27T02:52:36.751Z,92.30
2018-07-27T02:55:05.397Z,92.40
2018-07-27T02:57:34.919Z,92.50
2018-07-27T03:00:03.905Z,92.60
2018-07-27T03:07:36.387Z,92.80
2018-07-27T03:10:05.281Z,92.90
2018-07-27T03:12:33.753Z,92.90
2018-07-27T03:15:02.071Z,93.30
2018-07-27T03:17:30.469Z,93.00
2018-07-27T03:19:58.893Z,93.00
2018-07-27T03:22:27.288Z,93.00
2018-07-27T03:29:53.109Z,93.20
2018-07-27T03:32:29.797Z,93.00
2018-07-27T03:34:58.262Z,93.20
2018-07-27T03:37:26.456Z,93.20
2018-07-27T03:39:55.040Z,93.40
2018-07-27T03:42:24.516Z,93.60
2018-07-27T03:44:52.805Z,93.70
2018-07-27T03:49:49.392Z,93.70
2018-07-27T03:52:18.894Z,93.70
2018-07-27T03:54:47.334Z,93.70
2018-07-27T03:57:15.931Z,93.80
2018-07-27T03:59:44.355Z,93.80
2018-07-27T04:02:14.918Z,93.70
2018-07-27T04:04:43.489Z,93.70
2018-07-27T04:07:11.833Z,93.80
2018-07-27T04:09:40.391Z,93.70
2018-07-27T04:12:08.695Z,93.80
2018-07-27T04:14:37.493Z,93.80
2018-07-27T04:17:05.987Z,93.70
2018-07-27T04:19:34.464Z,93.70
2018-07-27T04:22:02.988Z,93.60
2018-07-27T04:26:59.356Z,93.60
2018-07-27T04:29:33.186Z,93.60
2018-07-27T04:32:01.598Z,93.40
2018-07-27T04:36:59.239Z,93.00
2018-07-27T04:39:28.016Z,92.60
2018-07-27T04:44:24.246Z,92.10
2018-07-27T04:46:53.953Z,90.50
2018-07-27T04:49:22.851Z,87.70
2018-07-27T04:51:51.247Z,85.30
2018-07-27T04:54:20.077Z,82.30
2018-07-27T04:59:16.570Z,77.00
2018-07-27T05:01:45.460Z,74.20
2018-07-27T05:06:42.206Z,70.70
2018-07-27T05:09:16.178Z,70.80
2018-07-27T05:14:12.802Z,70.60
2018-07-27T05:16:41.258Z,69.80
2018-07-27T05:19:10.686Z,69.90
2018-07-27T05:21:39.193Z,69.20
2018-07-27T05:24:08.384Z,69.60
2018-07-27T05:26:36.693Z,70.10
2018-07-27T05:29:05.117Z,70.40
2018-07-27T05:31:33.306Z,70.20
2018-07-27T05:34:01.508Z,70.30
2018-07-27T05:36:29.946Z,71.10
2018-07-27T05:38:58.402Z,70.00
2018-07-27T05:41:35.494Z,68.40
2018-07-27T05:46:31.815Z,62.90
2018-07-27T05:49:00.186Z,62.80
2018-07-27T05:53:57.740Z,56.50
2018-07-27T05:56:26.129Z,52.20
2018-07-27T05:58:55.281Z,49.10
2018-07-27T06:01:25.377Z,46.20
2018-07-27T06:03:53.676Z,43.60
2018-07-27T06:06:21.938Z,41.60
2018-07-27T06:08:50.711Z,39.80
2018-07-27T06:11:19.479Z,38.50
2018-07-27T06:13:48.063Z,37.50
2018-07-27T06:16:16.478Z,36.80
2018-07-27T06:21:13.074Z,35.40
2018-07-27T06:23:41.294Z,35.50
2018-07-27T06:26:09.878Z,35.00
2018-07-27T06:28:38.228Z,35.20
2018-07-27T06:31:06.416Z,33.40
2018-07-27T06:33:34.676Z,32.70
2018-07-27T06:36:03.112Z,32.20
2018-07-27T06:38:31.371Z,31.80
2018-07-27T06:40:59.747Z,32.20
2018-07-27T06:43:28.252Z,32.10
2018-07-27T06:48:25.591Z,32.20
2018-07-27T06:50:53.957Z,31.70
2018-07-27T06:53:22.729Z,30.70
2018-07-27T06:55:51.113Z,30.00
2018-07-27T06:58:19.677Z,29.30
2018-07-27T07:03:16.321Z,27.90
2018-07-27T07:05:44.779Z,27.60
2018-07-27T07:08:13.001Z,27.10
2018-07-27T07:10:41.165Z,27.50
2018-07-27T07:15:37.674Z,26.80
2018-07-27T07:18:06.270Z,27.30
2018-07-27T07:23:02.786Z,28.40
2018-07-27T07:25:31.166Z,29.20
2018-07-27T07:27:59.363Z,30.70
2018-07-27T07:30:27.880Z,31.90
2018-07-27T07:32:56.259Z,31.10
2018-07-27T07:40:21.138Z,28.20
2018-07-27T07:42:49.440Z,27.40
2018-07-27T07:47:45.807Z,26.70
2018-07-27T07:50:14.173Z,26.90
2018-07-27T07:52:43.052Z,28.20
2018-07-27T08:00:08.626Z,33.40
2018-07-27T08:02:37.191Z,34.50
2018-07-27T08:05:05.563Z,34.20
2018-07-27T08:10:02.818Z,32.70
2018-07-27T08:12:31.279Z,33.40
2018-07-27T08:14:59.744Z,33.90
2018-07-27T08:17:28.184Z,33.20
2018-07-27T08:19:56.574Z,34.20
2018-07-27T08:29:49.267Z,35.30
2018-07-27T08:32:18.462Z,34.00
2018-07-27T08:37:15.195Z,34.40
2018-07-27T08:39:43.599Z,34.80
2018-07-27T08:42:12.181Z,35.20
2018-07-27T08:44:41.351Z,35.60
2018-07-27T08:47:09.810Z,36.20
2018-07-27T08:52:06.711Z,37.50
2018-07-27T08:54:35.081Z,38.20
2018-07-27T08:57:03.441Z,38.80
2018-07-27T08:59:31.691Z,39.10
2018-07-27T09:02:00.404Z,39.70
2018-07-27T09:04:28.773Z,40.20
2018-07-27T09:06:57.198Z,41.00
2018-07-27T09:09:25.707Z,40.80
2018-07-27T09:11:54.304Z,41.20
2018-07-27T09:14:22.768Z,41.90
2018-07-27T09:16:51.206Z,42.20
2018-07-27T09:19:19.588Z,42.10
2018-07-27T09:24:16.388Z,42.50
2018-07-27T09:26:44.594Z,42.00
2018-07-27T09:31:41.404Z,42.30
2018-07-27T09:34:09.615Z,42.60
2018-07-27T09:36:37.757Z,42.50
2018-07-27T09:39:08.388Z,42.90
2018-07-27T09:41:37.037Z,43.10
2018-07-27T09:46:33.961Z,43.10
2018-07-27T09:49:02.460Z,43.30
2018-07-27T09:51:31.051Z,44.10
2018-07-27T09:53:59.325Z,45.20
2018-07-27T09:56:27.868Z,46.50
2018-07-27T09:58:56.334Z,45.40
2018-07-27T10:03:54.790Z,43.70
2018-07-27T10:11:20.572Z,45.00
2018-07-27T10:13:49.202Z,46.50
2018-07-27T10:16:17.735Z,45.70
2018-07-27T10:18:46.499Z,46.00
2018-07-27T10:23:44.135Z,46.50
2018-07-27T10:28:40.640Z,45.90
2018-07-27T10:31:09.649Z,46.60
2018-07-27T10:33:38.075Z,47.80
2018-07-27T10:36:06.241Z,48.40
2018-07-27T10:38:34.565Z,47.30
2018-07-27T10:41:04.045Z,47.90
2018-07-27T10:43:33.405Z,47.70
2018-07-27T10:46:01.673Z,47.60
2018-07-27T10:48:31.506Z,47.50
2018-07-27T10:51:00.212Z,47.10
2018-07-27T10:53:28.484Z,46.70
2018-07-27T10:58:25.018Z,45.90
2018-07-27T11:00:53.518Z,44.80
2018-07-27T11:03:21.890Z,43.90
2018-07-27T11:05:51.408Z,43.70
2018-07-27T11:08:20.596Z,43.90
2018-07-27T11:10:49.245Z,43.10
2018-07-27T11:13:17.753Z,43.20
2018-07-27T11:15:46.367Z,43.10
2018-07-27T11:18:14.865Z,43.20
2018-07-27T11:20:43.331Z,43.40
2018-07-27T11:23:11.959Z,43.40
2018-07-27T11:28:08.711Z,43.40
2018-07-27T11:30:37.148Z,43.70
2018-07-27T11:33:05.891Z,44.30
2018-07-27T11:35:34.304Z,44.50
2018-07-27T11:38:02.668Z,44.40
2018-07-27T11:40:30.889Z,44.20
2018-07-27T11:42:59.236Z,44.10
2018-07-27T11:45:27.762Z,44.40
2018-07-27T11:47:56.062Z,44.70
2018-07-27T11:50:28.263Z,47.60
2018-07-27T11:52:56.860Z,51.20
2018-07-27T11:55:25.277Z,53.60
2018-07-27T11:57:53.779Z,54.70
2018-07-27T12:00:22.945Z,55.40
2018-07-27T12:02:51.271Z,56.10
2018-07-27T12:05:19.877Z,56.20
2018-07-27T12:07:50.345Z,59.10
2018-07-27T12:10:18.749Z,63.40
2018-07-27T12:12:47.214Z,68.60
2018-07-27T12:17:44.238Z,76.90
2018-07-27T12:20:12.708Z,80.50
2018-07-27T12:22:41.590Z,79.80
2018-07-27T12:25:10.724Z,79.00
2018-07-27T12:27:39.165Z,76.60
2018-07-27T12:30:07.739Z,73.70
2018-07-27T12:32:37.392Z,73.50
2018-07-27T12:35:06.013Z,71.70
2018-07-27T12:37:34.191Z,68.70
2018-07-27T12:45:00.223Z,72.20
2018-07-27T12:47:28.581Z,71.10
2018-07-27T12:49:57.314Z,71.30
2018-07-27T12:52:25.818Z,70.80
2018-07-27T12:54:54.448Z,67.80
2018-07-27T12:57:22.941Z,65.30
2018-07-27T12:59:51.397Z,63.20
2018-07-27T13:02:19.902Z,63.10
2018-07-27T13:04:48.525Z,61.80
2018-07-27T13:07:17.028Z,59.90
2018-07-27T13:09:45.247Z,59.40
2018-07-27T13:12:13.521Z,59.20
2018-07-27T13:17:10.309Z,57.00
2018-07-27T13:19:39.025Z,54.90
2018-07-27T13:22:07.823Z,55.30
2018-07-27T13:25:02.987Z,55.40
2018-07-27T13:29:33.046Z,55.80
2018-07-27T13:32:01.723Z,56.80
2018-07-27T13:34:34.860Z,58.00
2018-07-27T13:37:03.220Z,58.00
2018-07-27T13:39:32.236Z,58.80
2018-07-27T13:44:30.380Z,59.80
2018-07-27T13:49:27.498Z,59.70
2018-07-27T13:51:56.192Z,60.10
2018-07-27T13:54:24.707Z,59.80
2018-07-27T13:56:53.277Z,59.80
2018-07-27T13:59:21.749Z,61.00
2018-07-27T14:01:50.079Z,60.80
2018-07-27T14:04:18.303Z,60.70
2018-07-27T14:06:50.118Z,60.50
2018-07-27T14:09:19.014Z,60.00
2018-07-27T14:11:47.370Z,59.30
2018-07-27T14:14:15.811Z,58.00
2018-07-27T14:16:44.494Z,57.70
2018-07-27T14:19:13.578Z,56.80
2018-07-27T14:21:42.160Z,55.70
2018-07-27T14:24:10.610Z,54.00
2018-07-27T14:26:40.217Z,52.50
2018-07-27T14:31:36.845Z,51.40
2018-07-27T14:34:05.518Z,51.00
2018-07-27T14:36:33.921Z,50.70
2018-07-27T14:41:30.309Z,50.60
2018-07-27T14:43:58.832Z,49.60
2018-07-27T14:46:27.440Z,50.10
2018-07-27T14:48:56.049Z,49.80
2018-07-27T14:51:24.754Z,49.80
2018-07-27T14:53:53.155Z,49.60
2018-07-27T14:56:21.830Z,49.00
2018-07-27T14:58:50.332Z,49.10
2018-07-27T15:01:18.756Z,49.60
2018-07-27T15:03:47.264Z,49.40
2018-07-27T15:06:15.747Z,49.20
2018-07-27T15:08:44.259Z,49.10
2018-07-27T15:16:08.641Z,51.90
2018-07-27T15:18:36.925Z,52.70
2018-07-27T15:21:05.539Z,53.80
2018-07-27T15:26:02.040Z,54.90
2018-07-27T15:28:30.351Z,54.50
2018-07-27T15:30:58.981Z,55.10
2018-07-27T15:33:27.328Z,55.70
2018-07-27T15:35:55.733Z,57.20
2018-07-27T15:38:24.250Z,58.30
2018-07-27T15:40:54.055Z,59.70
2018-07-27T15:43:22.492Z,61.40
2018-07-27T15:45:50.968Z,62.60
2018-07-27T15:50:47.470Z,65.10
2018-07-27T15:53:16.101Z,65.50
2018-07-27T15:55:44.327Z,66.10
2018-07-27T15:58:12.884Z,66.40
2018-07-27T16:00:41.576Z,67.30
2018-07-27T16:03:10.072Z,67.00
2018-07-27T16:05:38.998Z,67.60
2018-07-27T16:08:07.592Z,67.70
2018-07-27T16:10:36.186Z,68.10
2018-07-27T16:13:04.701Z,68.90
2018-07-27T16:15:33.197Z,69.20
2018-07-27T16:20:29.675Z,68.20
2018-07-27T16:25:25.973Z,68.10
2018-07-27T16:30:23.390Z,67.70
2018-07-27T16:32:51.897Z,68.00
2018-07-27T16:35:20.610Z,68.30
2018-07-27T16:37:49.233Z,68.50
2018-07-27T16:40:17.900Z,68.90
2018-07-27T16:42:46.417Z,69.10
2018-07-27T16:47:43.114Z,69.30
2018-07-27T16:50:12.322Z,69.40
2018-07-27T16:52:40.714Z,69.70
2018-07-27T16:55:09.022Z,70.20
2018-07-27T16:57:37.133Z,70.90
2018-07-27T17:00:05.632Z,71.40
2018-07-27T17:02:34.047Z,71.80
2018-07-27T17:05:02.406Z,72.00
2018-07-27T17:09:59.336Z,73.90
2018-07-27T17:12:27.604Z,72.30
2018-07-27T17:14:56.121Z,72.50
2018-07-27T17:17:24.640Z,72.80
2018-07-27T17:19:53.218Z,73.30
2018-07-27T17:22:21.650Z,73.40
2018-07-27T17:24:50.031Z,73.20
2018-07-27T17:27:18.337Z,73.40
2018-07-27T17:29:48.276Z,73.60
2018-07-27T17:32:16.460Z,74.30
2018-07-27T17:37:13.041Z,75.70
2018-07-27T17:44:38.967Z,78.50
2018-07-27T17:47:07.408Z,79.00
2018-07-27T17:49:35.980Z,79.20
2018-07-27T17:52:04.571Z,79.70
2018-07-27T17:57:01.903Z,80.70
2018-07-27T17:59:30.296Z,81.60
2018-07-27T18:01:58.571Z,82.80
2018-07-27T18:06:57.480Z,83.00
2018-07-27T18:09:25.925Z,83.50
2018-07-27T18:14:24.012Z,83.70
2018-07-27T18:16:52.552Z,84.10
2018-07-27T18:21:49.259Z,85.40
2018-07-27T18:24:17.845Z,86.00
2018-07-27T18:26:46.343Z,86.50
2018-07-27T18:29:14.657Z,87.10
2018-07-27T18:34:34.771Z,88.30
2018-07-27T18:39:31.692Z,89.00
2018-07-27T18:41:59.991Z,89.70
2018-07-27T18:44:28.485Z,90.40
2018-07-27T18:46:58.109Z,90.80
2018-07-27T18:49:26.400Z,91.20
2018-07-27T18:54:22.998Z,91.70
2018-07-27T18:56:51.402Z,92.00
2018-07-27T18:59:19.692Z,92.30
2018-07-27T19:01:48.087Z,92.50
2018-07-27T19:04:18.249Z,92.80
2018-07-27T19:06:46.523Z,93.40
2018-07-27T19:11:44.572Z,93.30
2018-07-27T19:14:18.277Z,93.20
2018-07-27T19:16:47.178Z,93.30
2018-07-27T19:21:43.775Z,93.50
2018-07-27T19:24:13.081Z,93.60
2018-07-27T19:26:41.613Z,93.80
2018-07-27T19:29:09.777Z,94.00
2018-07-27T19:31:38.389Z,94.20
2018-07-27T19:34:07.619Z,94.40
2018-07-27T19:36:36.408Z,94.50
2018-07-27T19:41:40.038Z,94.70
2018-07-27T19:44:08.658Z,95.10
2018-07-27T19:46:37.108Z,95.40
2018-07-27T19:49:05.519Z,95.70
2018-07-27T19:51:34.803Z,96.20
2018-07-27T19:56:31.716Z,96.00
2018-07-27T19:58:59.803Z,96.30
2018-07-27T20:01:28.199Z,96.40
2018-07-27T20:06:24.731Z,96.50
2018-07-27T20:08:53.609Z,96.60
2018-07-27T20:11:22.211Z,96.80
2018-07-27T20:13:50.858Z,96.90
2018-07-27T20:16:20.318Z,97.00
2018-07-27T20:18:48.585Z,97.00
2018-07-27T20:21:17.050Z,96.80
2018-07-27T20:23:45.314Z,96.50
2018-07-27T20:26:13.426Z,96.70
2018-07-27T20:28:41.934Z,96.60
2018-07-27T20:31:10.635Z,96.60
2018-07-27T20:33:39.036Z,96.80
2018-07-27T20:36:07.564Z,96.90
2018-07-27T20:38:37.050Z,97.00
2018-07-27T20:41:05.444Z,96.80
2018-07-27T20:43:33.993Z,96.90
2018-07-27T20:46:02.228Z,96.70
2018-07-27T20:50:59.878Z,96.60
2018-07-27T20:56:00.341Z,96.90
2018-07-27T20:58:28.842Z,96.90
2018-07-27T21:03:25.351Z,97.50
2018-07-27T21:05:53.663Z,97.10
2018-07-27T21:08:22.377Z,97.90
2018-07-27T21:10:50.771Z,98.20
2018-07-27T21:13:19.134Z,98.40
2018-07-27T21:15:47.560Z,98.60
2018-07-27T21:18:20.361Z,98.80
2018-07-27T21:20:48.540Z,98.90
2018-07-27T21:28:15.382Z,99.20
2018-07-27T21:30:43.770Z,99.40
2018-07-27T21:33:13.406Z,99.70
2018-07-27T21:35:41.704Z,99.90
2018-07-27T21:40:38.994Z,99.90
2018-07-27T21:43:07.620Z,99.90
2018-07-27T21:48:04.252Z,99.90
2018-07-27T21:50:32.817Z,99.90
2018-07-27T21:53:01.048Z,99.90
2018-07-27T21:55:29.282Z,99.90
2018-07-27T21:57:57.990Z,99.90
2018-07-27T22:00:27.633Z,99.90
2018-07-27T22:02:56.027Z,99.90
2018-07-27T22:05:24.317Z,99.90
2018-07-27T22:07:54.667Z,99.90
2018-07-27T22:10:23.768Z,99.90
2018-07-27T22:12:52.290Z,99.90
2018-07-27T22:17:51.522Z,99.90
2018-07-27T22:20:20.688Z,99.90
2018-07-27T22:22:49.078Z,99.90
2018-07-27T22:25:17.668Z,99.90
2018-07-27T22:27:46.893Z,99.90
2018-07-27T22:32:44.710Z,99.90
2018-07-27T22:35:13.126Z,99.90
2018-07-27T22:37:41.419Z,99.70
2018-07-27T22:40:10.885Z,99.70
2018-07-27T22:42:39.213Z,99.50
2018-07-27T22:45:08.809Z,99.60
2018-07-27T22:47:37.780Z,99.70
2018-07-27T22:52:37.199Z,99.50
2018-07-27T22:55:06.813Z,99.60
2018-07-27T22:57:35.459Z,99.70
2018-07-27T23:00:04.321Z,99.50
2018-07-27T23:02:32.557Z,99.30
2018-07-27T23:07:29.152Z,99.30
2018-07-27T23:09:57.449Z,98.80
2018-07-27T23:12:25.839Z,98.60
2018-07-27T23:14:54.394Z,98.50
2018-07-27T23:17:25.018Z,98.80
2018-07-27T23:19:53.504Z,98.30
2018-07-27T23:22:21.820Z,98.40
2018-07-27T23:24:50.358Z,98.30
2018-07-27T23:27:18.905Z,98.40
2018-07-27T23:29:47.413Z,98.40
2018-07-27T23:37:15.600Z,98.70
2018-07-27T23:39:43.997Z,98.90
2018-07-27T23:42:13.495Z,99.10
2018-07-27T23:44:41.826Z,99.20
2018-07-27T23:47:10.293Z,99.20
2018-07-27T23:50:14.511Z,99.40
2018-07-27T23:52:42.819Z,99.40
2018-07-27T23:55:11.219Z,99.50
2018-07-27T23:57:39.509Z,99.60
